sensor_id;sensor_type;location;lat;lon;timestamp;P1;durP1;ratioP1;P2;durP2;ratioP2
65831;SDS011;52593;42.648;23.332;2023-06-26T00:00:10;27.13;;;14.50;;
65831;SDS011;52593;42.648;23.332;2023-06-26T00:02:36;25.40;;;13.23;;
65831;SDS011;52593;42.648;23.332;2023-06-26T00:05:01;26.73;;;14.17;;
65831;SDS011;52593;42.648;23.332;2023-06-26T00:07:30;22.07;;;12.53;;
65831;SDS011;52593;42.648;23.332;2023-06-26T00:09:58;26.50;;;13.35;;
65831;SDS011;52593;42.648;23.332;2023-06-26T00:12:24;24.33;;;12.50;;
65831;SDS011;52593;42.648;23.332;2023-06-26T00:14:50;24.05;;;12.70;;
65831;SDS011;52593;42.648;23.332;2023-06-26T00:17:15;21.53;;;12.10;;
65831;SDS011;52593;42.648;23.332;2023-06-26T00:19:41;22.00;;;12.90;;
65831;SDS011;52593;42.648;23.332;2023-06-26T00:22:06;21.30;;;12.07;;
65831;SDS011;52593;42.648;23.332;2023-06-26T00:24:32;25.40;;;12.33;;
65831;SDS011;52593;42.648;23.332;2023-06-26T00:26:57;22.33;;;12.30;;
65831;SDS011;52593;42.648;23.332;2023-06-26T00:29:23;23.20;;;12.07;;
65831;SDS011;52593;42.648;23.332;2023-06-26T00:31:49;22.03;;;10.87;;
65831;SDS011;52593;42.648;23.332;2023-06-26T00:34:14;23.23;;;11.65;;
65831;SDS011;52593;42.648;23.332;2023-06-26T00:36:40;20.43;;;11.03;;
65831;SDS011;52593;42.648;23.332;2023-06-26T00:39:08;23.75;;;11.13;;
65831;SDS011;52593;42.648;23.332;2023-06-26T00:41:35;21.90;;;12.13;;
65831;SDS011;52593;42.648;23.332;2023-06-26T00:44:01;20.10;;;11.32;;
65831;SDS011;52593;42.648;23.332;2023-06-26T00:46:27;20.87;;;11.07;;
65831;SDS011;52593;42.648;23.332;2023-06-26T00:48:52;22.63;;;11.67;;
65831;SDS011;52593;42.648;23.332;2023-06-26T00:51:19;20.88;;;11.80;;
65831;SDS011;52593;42.648;23.332;2023-06-26T00:53:44;22.00;;;10.93;;
65831;SDS011;52593;42.648;23.332;2023-06-26T00:56:10;20.23;;;10.93;;
65831;SDS011;52593;42.648;23.332;2023-06-26T00:58:36;20.40;;;10.87;;
65831;SDS011;52593;42.648;23.332;2023-06-26T01:01:01;18.70;;;11.13;;
65831;SDS011;52593;42.648;23.332;2023-06-26T01:03:27;17.50;;;10.20;;
65831;SDS011;52593;42.648;23.332;2023-06-26T01:05:53;18.63;;;10.73;;
65831;SDS011;52593;42.648;23.332;2023-06-26T01:08:21;21.00;;;10.88;;
65831;SDS011;52593;42.648;23.332;2023-06-26T01:10:47;18.60;;;10.10;;
65831;SDS011;52593;42.648;23.332;2023-06-26T01:13:13;18.57;;;10.73;;
65831;SDS011;52593;42.648;23.332;2023-06-26T01:15:40;20.10;;;10.50;;
65831;SDS011;52593;42.648;23.332;2023-06-26T01:18:05;18.33;;;9.98;;
65831;SDS011;52593;42.648;23.332;2023-06-26T01:20:31;17.33;;;9.90;;
65831;SDS011;52593;42.648;23.332;2023-06-26T01:23:03;19.92;;;10.20;;
65831;SDS011;52593;42.648;23.332;2023-06-26T01:25:39;18.52;;;10.02;;
65831;SDS011;52593;42.648;23.332;2023-06-26T01:28:15;20.35;;;10.60;;
65831;SDS011;52593;42.648;23.332;2023-06-26T01:30:43;19.47;;;10.70;;
65831;SDS011;52593;42.648;23.332;2023-06-26T01:33:10;18.10;;;10.10;;
65831;SDS011;52593;42.648;23.332;2023-06-26T01:35:38;20.48;;;11.68;;
65831;SDS011;52593;42.648;23.332;2023-06-26T01:38:11;18.33;;;10.55;;
65831;SDS011;52593;42.648;23.332;2023-06-26T01:40:46;19.23;;;10.88;;
65831;SDS011;52593;42.648;23.332;2023-06-26T01:45:50;20.67;;;10.85;;
65831;SDS011;52593;42.648;23.332;2023-06-26T01:48:20;19.45;;;10.63;;
65831;SDS011;52593;42.648;23.332;2023-06-26T01:50:51;19.67;;;11.30;;
65831;SDS011;52593;42.648;23.332;2023-06-26T01:53:19;20.00;;;11.40;;
65831;SDS011;52593;42.648;23.332;2023-06-26T01:55:56;18.95;;;11.00;;
65831;SDS011;52593;42.648;23.332;2023-06-26T01:58:29;20.55;;;10.85;;
65831;SDS011;52593;42.648;23.332;2023-06-26T02:00:56;20.92;;;11.13;;
65831;SDS011;52593;42.648;23.332;2023-06-26T02:03:21;22.17;;;10.80;;
65831;SDS011;52593;42.648;23.332;2023-06-26T02:05:49;18.92;;;10.73;;
65831;SDS011;52593;42.648;23.332;2023-06-26T02:08:15;18.10;;;10.20;;
65831;SDS011;52593;42.648;23.332;2023-06-26T02:10:40;17.97;;;10.93;;
65831;SDS011;52593;42.648;23.332;2023-06-26T02:13:05;21.63;;;10.40;;
65831;SDS011;52593;42.648;23.332;2023-06-26T02:15:31;19.17;;;11.50;;
65831;SDS011;52593;42.648;23.332;2023-06-26T02:17:56;19.50;;;10.03;;
65831;SDS011;52593;42.648;23.332;2023-06-26T02:20:22;18.83;;;10.37;;
65831;SDS011;52593;42.648;23.332;2023-06-26T02:22:47;18.93;;;10.60;;
65831;SDS011;52593;42.648;23.332;2023-06-26T02:25:12;18.77;;;10.73;;
65831;SDS011;52593;42.648;23.332;2023-06-26T02:27:39;20.60;;;10.38;;
65831;SDS011;52593;42.648;23.332;2023-06-26T02:30:04;20.30;;;11.63;;
65831;SDS011;52593;42.648;23.332;2023-06-26T02:32:31;20.20;;;11.05;;
65831;SDS011;52593;42.648;23.332;2023-06-26T02:34:56;21.27;;;11.07;;
65831;SDS011;52593;42.648;23.332;2023-06-26T02:37:21;19.20;;;11.60;;
65831;SDS011;52593;42.648;23.332;2023-06-26T02:39:47;18.80;;;10.90;;
65831;SDS011;52593;42.648;23.332;2023-06-26T02:42:12;20.80;;;11.73;;
65831;SDS011;52593;42.648;23.332;2023-06-26T02:44:38;23.65;;;12.65;;
65831;SDS011;52593;42.648;23.332;2023-06-26T02:47:03;24.03;;;12.77;;
65831;SDS011;52593;42.648;23.332;2023-06-26T02:49:29;22.40;;;12.53;;
65831;SDS011;52593;42.648;23.332;2023-06-26T02:51:54;23.67;;;13.73;;
65831;SDS011;52593;42.648;23.332;2023-06-26T02:54:20;22.67;;;12.50;;
65831;SDS011;52593;42.648;23.332;2023-06-26T02:56:45;23.73;;;12.37;;
65831;SDS011;52593;42.648;23.332;2023-06-26T02:59:10;23.07;;;13.17;;
65831;SDS011;52593;42.648;23.332;2023-06-26T03:01:36;20.80;;;12.23;;
65831;SDS011;52593;42.648;23.332;2023-06-26T03:04:01;27.50;;;13.50;;
65831;SDS011;52593;42.648;23.332;2023-06-26T03:06:27;23.30;;;12.80;;
65831;SDS011;52593;42.648;23.332;2023-06-26T03:08:53;20.50;;;12.57;;
65831;SDS011;52593;42.648;23.332;2023-06-26T03:11:19;25.00;;;13.38;;
65831;SDS011;52593;42.648;23.332;2023-06-26T03:13:44;27.27;;;13.33;;
65831;SDS011;52593;42.648;23.332;2023-06-26T03:16:10;22.97;;;12.67;;
65831;SDS011;52593;42.648;23.332;2023-06-26T03:18:35;23.17;;;12.88;;
65831;SDS011;52593;42.648;23.332;2023-06-26T03:21:01;23.03;;;13.00;;
65831;SDS011;52593;42.648;23.332;2023-06-26T03:23:26;22.20;;;12.90;;
65831;SDS011;52593;42.648;23.332;2023-06-26T03:25:52;21.37;;;12.90;;
65831;SDS011;52593;42.648;23.332;2023-06-26T03:28:17;22.60;;;12.77;;
65831;SDS011;52593;42.648;23.332;2023-06-26T03:30:42;23.07;;;12.70;;
65831;SDS011;52593;42.648;23.332;2023-06-26T03:33:08;21.93;;;12.87;;
65831;SDS011;52593;42.648;23.332;2023-06-26T03:35:33;22.20;;;12.63;;
65831;SDS011;52593;42.648;23.332;2023-06-26T03:37:59;23.17;;;13.30;;
65831;SDS011;52593;42.648;23.332;2023-06-26T03:40:25;23.70;;;12.67;;
65831;SDS011;52593;42.648;23.332;2023-06-26T03:42:51;22.60;;;13.52;;
65831;SDS011;52593;42.648;23.332;2023-06-26T03:45:16;23.83;;;13.40;;
65831;SDS011;52593;42.648;23.332;2023-06-26T03:47:42;24.77;;;14.05;;
65831;SDS011;52593;42.648;23.332;2023-06-26T03:50:08;23.13;;;13.67;;
65831;SDS011;52593;42.648;23.332;2023-06-26T03:52:33;22.60;;;13.07;;
65831;SDS011;52593;42.648;23.332;2023-06-26T03:54:59;26.07;;;14.20;;
65831;SDS011;52593;42.648;23.332;2023-06-26T03:57:25;24.90;;;13.57;;
65831;SDS011;52593;42.648;23.332;2023-06-26T03:59:50;26.30;;;14.03;;
65831;SDS011;52593;42.648;23.332;2023-06-26T04:02:16;23.10;;;12.73;;
65831;SDS011;52593;42.648;23.332;2023-06-26T04:04:42;23.73;;;12.23;;
65831;SDS011;52593;42.648;23.332;2023-06-26T04:07:07;21.60;;;12.83;;
65831;SDS011;52593;42.648;23.332;2023-06-26T04:09:32;21.60;;;12.93;;
65831;SDS011;52593;42.648;23.332;2023-06-26T04:11:58;22.20;;;13.43;;
65831;SDS011;52593;42.648;23.332;2023-06-26T04:14:23;23.92;;;13.45;;
65831;SDS011;52593;42.648;23.332;2023-06-26T04:16:49;22.30;;;13.30;;
65831;SDS011;52593;42.648;23.332;2023-06-26T04:19:14;22.70;;;13.03;;
65831;SDS011;52593;42.648;23.332;2023-06-26T04:21:40;22.25;;;13.13;;
65831;SDS011;52593;42.648;23.332;2023-06-26T04:24:05;23.13;;;12.80;;
65831;SDS011;52593;42.648;23.332;2023-06-26T04:26:31;21.43;;;12.87;;
65831;SDS011;52593;42.648;23.332;2023-06-26T04:28:56;22.77;;;12.90;;
65831;SDS011;52593;42.648;23.332;2023-06-26T04:31:22;22.92;;;11.52;;
65831;SDS011;52593;42.648;23.332;2023-06-26T04:33:47;23.60;;;12.80;;
65831;SDS011;52593;42.648;23.332;2023-06-26T04:36:16;21.15;;;12.15;;
65831;SDS011;52593;42.648;23.332;2023-06-26T04:38:42;22.13;;;12.18;;
65831;SDS011;52593;42.648;23.332;2023-06-26T04:41:08;22.70;;;11.90;;
65831;SDS011;52593;42.648;23.332;2023-06-26T04:43:33;19.60;;;11.97;;
65831;SDS011;52593;42.648;23.332;2023-06-26T04:45:59;22.35;;;12.30;;
65831;SDS011;52593;42.648;23.332;2023-06-26T04:48:24;21.80;;;12.37;;
65831;SDS011;52593;42.648;23.332;2023-06-26T04:50:52;21.80;;;12.38;;
65831;SDS011;52593;42.648;23.332;2023-06-26T04:53:19;23.63;;;12.40;;
65831;SDS011;52593;42.648;23.332;2023-06-26T04:55:48;20.50;;;11.88;;
65831;SDS011;52593;42.648;23.332;2023-06-26T04:58:14;22.13;;;12.57;;
65831;SDS011;52593;42.648;23.332;2023-06-26T05:00:40;20.83;;;12.13;;
65831;SDS011;52593;42.648;23.332;2023-06-26T05:03:08;20.27;;;11.02;;
65831;SDS011;52593;42.648;23.332;2023-06-26T05:05:36;22.38;;;12.65;;
65831;SDS011;52593;42.648;23.332;2023-06-26T05:08:13;20.67;;;12.10;;
65831;SDS011;52593;42.648;23.332;2023-06-26T05:10:56;22.25;;;12.57;;
65831;SDS011;52593;42.648;23.332;2023-06-26T05:13:23;20.40;;;12.07;;
65831;SDS011;52593;42.648;23.332;2023-06-26T05:15:49;19.43;;;11.20;;
65831;SDS011;52593;42.648;23.332;2023-06-26T05:18:16;20.77;;;11.48;;
65831;SDS011;52593;42.648;23.332;2023-06-26T05:20:41;19.63;;;11.70;;
65831;SDS011;52593;42.648;23.332;2023-06-26T05:23:07;20.60;;;11.77;;
65831;SDS011;52593;42.648;23.332;2023-06-26T05:25:33;22.13;;;11.60;;
65831;SDS011;52593;42.648;23.332;2023-06-26T05:27:59;22.27;;;12.67;;
65831;SDS011;52593;42.648;23.332;2023-06-26T05:30:25;22.40;;;12.88;;
65831;SDS011;52593;42.648;23.332;2023-06-26T05:32:52;20.92;;;12.32;;
65831;SDS011;52593;42.648;23.332;2023-06-26T05:35:21;19.95;;;11.77;;
65831;SDS011;52593;42.648;23.332;2023-06-26T05:37:48;21.90;;;12.05;;
65831;SDS011;52593;42.648;23.332;2023-06-26T05:40:15;22.10;;;12.00;;
65831;SDS011;52593;42.648;23.332;2023-06-26T05:42:41;18.48;;;11.73;;
65831;SDS011;52593;42.648;23.332;2023-06-26T05:45:07;20.33;;;11.88;;
65831;SDS011;52593;42.648;23.332;2023-06-26T05:47:34;19.50;;;12.02;;
65831;SDS011;52593;42.648;23.332;2023-06-26T05:49:59;21.80;;;11.73;;
65831;SDS011;52593;42.648;23.332;2023-06-26T05:52:25;20.13;;;11.93;;
65831;SDS011;52593;42.648;23.332;2023-06-26T05:54:51;21.52;;;12.35;;
65831;SDS011;52593;42.648;23.332;2023-06-26T05:57:17;21.17;;;11.87;;
65831;SDS011;52593;42.648;23.332;2023-06-26T05:59:43;21.67;;;12.25;;
65831;SDS011;52593;42.648;23.332;2023-06-26T06:02:09;19.40;;;11.48;;
65831;SDS011;52593;42.648;23.332;2023-06-26T06:04:36;19.52;;;11.45;;
65831;SDS011;52593;42.648;23.332;2023-06-26T06:07:02;20.85;;;11.35;;
65831;SDS011;52593;42.648;23.332;2023-06-26T06:09:28;18.77;;;11.63;;
65831;SDS011;52593;42.648;23.332;2023-06-26T06:11:53;17.87;;;9.47;;
65831;SDS011;52593;42.648;23.332;2023-06-26T06:14:19;20.13;;;10.73;;
65831;SDS011;52593;42.648;23.332;2023-06-26T06:16:44;19.90;;;11.10;;
65831;SDS011;52593;42.648;23.332;2023-06-26T06:19:09;17.67;;;10.17;;
65831;SDS011;52593;42.648;23.332;2023-06-26T06:21:37;18.27;;;9.85;;
65831;SDS011;52593;42.648;23.332;2023-06-26T06:24:03;18.60;;;9.50;;
65831;SDS011;52593;42.648;23.332;2023-06-26T06:26:29;17.75;;;10.27;;
65831;SDS011;52593;42.648;23.332;2023-06-26T06:28:54;16.10;;;10.47;;
65831;SDS011;52593;42.648;23.332;2023-06-26T06:31:19;19.20;;;10.53;;
65831;SDS011;52593;42.648;23.332;2023-06-26T06:33:45;19.20;;;10.63;;
65831;SDS011;52593;42.648;23.332;2023-06-26T06:36:10;20.90;;;10.57;;
65831;SDS011;52593;42.648;23.332;2023-06-26T06:38:36;18.47;;;10.83;;
65831;SDS011;52593;42.648;23.332;2023-06-26T06:41:02;20.45;;;10.85;;
65831;SDS011;52593;42.648;23.332;2023-06-26T06:43:27;17.53;;;10.23;;
65831;SDS011;52593;42.648;23.332;2023-06-26T06:45:52;17.47;;;9.53;;
65831;SDS011;52593;42.648;23.332;2023-06-26T06:48:18;17.83;;;11.23;;
65831;SDS011;52593;42.648;23.332;2023-06-26T06:50:43;20.13;;;11.03;;
65831;SDS011;52593;42.648;23.332;2023-06-26T06:53:09;17.00;;;10.00;;
65831;SDS011;52593;42.648;23.332;2023-06-26T06:55:34;18.77;;;10.67;;
65831;SDS011;52593;42.648;23.332;2023-06-26T06:57:59;16.00;;;9.40;;
65831;SDS011;52593;42.648;23.332;2023-06-26T07:00:25;16.83;;;9.30;;
65831;SDS011;52593;42.648;23.332;2023-06-26T07:02:50;16.40;;;9.40;;
65831;SDS011;52593;42.648;23.332;2023-06-26T07:05:16;15.33;;;9.27;;
65831;SDS011;52593;42.648;23.332;2023-06-26T07:07:41;14.83;;;8.80;;
65831;SDS011;52593;42.648;23.332;2023-06-26T07:10:07;15.48;;;8.32;;
65831;SDS011;52593;42.648;23.332;2023-06-26T07:12:34;12.93;;;8.00;;
65831;SDS011;52593;42.648;23.332;2023-06-26T07:15:00;16.98;;;8.63;;
65831;SDS011;52593;42.648;23.332;2023-06-26T07:17:27;15.27;;;8.05;;
65831;SDS011;52593;42.648;23.332;2023-06-26T07:19:53;14.70;;;8.60;;
65831;SDS011;52593;42.648;23.332;2023-06-26T07:22:18;12.13;;;6.40;;
65831;SDS011;52593;42.648;23.332;2023-06-26T07:24:47;10.93;;;5.90;;
65831;SDS011;52593;42.648;23.332;2023-06-26T07:27:13;9.40;;;5.57;;
65831;SDS011;52593;42.648;23.332;2023-06-26T07:29:45;12.93;;;6.45;;
65831;SDS011;52593;42.648;23.332;2023-06-26T07:32:10;13.20;;;6.87;;
65831;SDS011;52593;42.648;23.332;2023-06-26T07:34:36;10.43;;;5.73;;
65831;SDS011;52593;42.648;23.332;2023-06-26T07:37:02;12.73;;;6.32;;
65831;SDS011;52593;42.648;23.332;2023-06-26T07:39:27;12.77;;;6.95;;
65831;SDS011;52593;42.648;23.332;2023-06-26T07:41:53;10.73;;;6.07;;
65831;SDS011;52593;42.648;23.332;2023-06-26T07:44:18;9.47;;;5.53;;
65831;SDS011;52593;42.648;23.332;2023-06-26T07:46:44;10.33;;;5.37;;
65831;SDS011;52593;42.648;23.332;2023-06-26T07:49:12;13.57;;;5.38;;
65831;SDS011;52593;42.648;23.332;2023-06-26T07:51:38;10.15;;;6.00;;
65831;SDS011;52593;42.648;23.332;2023-06-26T07:54:04;12.97;;;6.40;;
65831;SDS011;52593;42.648;23.332;2023-06-26T07:56:29;9.40;;;5.30;;
65831;SDS011;52593;42.648;23.332;2023-06-26T07:58:55;10.50;;;4.70;;
65831;SDS011;52593;42.648;23.332;2023-06-26T08:01:23;9.18;;;4.65;;
65831;SDS011;52593;42.648;23.332;2023-06-26T08:03:48;10.52;;;5.60;;
65831;SDS011;52593;42.648;23.332;2023-06-26T08:06:14;10.17;;;5.70;;
65831;SDS011;52593;42.648;23.332;2023-06-26T08:08:39;10.43;;;5.20;;
65831;SDS011;52593;42.648;23.332;2023-06-26T08:11:05;11.47;;;4.83;;
65831;SDS011;52593;42.648;23.332;2023-06-26T08:13:30;9.38;;;4.93;;
65831;SDS011;52593;42.648;23.332;2023-06-26T08:15:55;10.43;;;5.33;;
65831;SDS011;52593;42.648;23.332;2023-06-26T08:18:21;11.37;;;5.00;;
65831;SDS011;52593;42.648;23.332;2023-06-26T08:20:46;9.43;;;4.83;;
65831;SDS011;52593;42.648;23.332;2023-06-26T08:23:11;8.07;;;4.47;;
65831;SDS011;52593;42.648;23.332;2023-06-26T08:25:37;10.55;;;5.07;;
65831;SDS011;52593;42.648;23.332;2023-06-26T08:28:02;10.97;;;5.50;;
65831;SDS011;52593;42.648;23.332;2023-06-26T08:30:28;10.70;;;5.27;;
65831;SDS011;52593;42.648;23.332;2023-06-26T08:32:57;9.57;;;5.18;;
65831;SDS011;52593;42.648;23.332;2023-06-26T08:35:22;10.50;;;5.68;;
65831;SDS011;52593;42.648;23.332;2023-06-26T08:37:48;9.90;;;5.80;;
65831;SDS011;52593;42.648;23.332;2023-06-26T08:40:16;9.53;;;5.63;;
65831;SDS011;52593;42.648;23.332;2023-06-26T08:42:44;10.68;;;6.03;;
65831;SDS011;52593;42.648;23.332;2023-06-26T08:45:10;10.38;;;5.03;;
65831;SDS011;52593;42.648;23.332;2023-06-26T08:47:35;9.93;;;4.77;;
65831;SDS011;52593;42.648;23.332;2023-06-26T08:52:49;9.60;;;5.40;;
65831;SDS011;52593;42.648;23.332;2023-06-26T08:55:20;9.75;;;4.72;;
65831;SDS011;52593;42.648;23.332;2023-06-26T08:57:49;8.40;;;4.40;;
65831;SDS011;52593;42.648;23.332;2023-06-26T09:00:16;9.03;;;4.77;;
65831;SDS011;52593;42.648;23.332;2023-06-26T09:02:42;12.10;;;5.72;;
65831;SDS011;52593;42.648;23.332;2023-06-26T09:05:09;8.02;;;3.63;;
65831;SDS011;52593;42.648;23.332;2023-06-26T09:07:34;9.50;;;4.90;;
65831;SDS011;52593;42.648;23.332;2023-06-26T09:10:00;8.50;;;4.30;;
65831;SDS011;52593;42.648;23.332;2023-06-26T09:12:28;7.83;;;4.33;;
65831;SDS011;52593;42.648;23.332;2023-06-26T09:14:56;9.90;;;5.18;;
65831;SDS011;52593;42.648;23.332;2023-06-26T09:17:25;8.70;;;4.60;;
65831;SDS011;52593;42.648;23.332;2023-06-26T09:19:55;8.20;;;4.65;;
65831;SDS011;52593;42.648;23.332;2023-06-26T09:22:20;9.03;;;5.13;;
65831;SDS011;52593;42.648;23.332;2023-06-26T09:24:46;12.35;;;4.70;;
65831;SDS011;52593;42.648;23.332;2023-06-26T09:27:12;8.18;;;4.50;;
65831;SDS011;52593;42.648;23.332;2023-06-26T09:29:38;9.63;;;4.17;;
65831;SDS011;52593;42.648;23.332;2023-06-26T09:32:03;8.63;;;4.40;;
65831;SDS011;52593;42.648;23.332;2023-06-26T09:34:32;7.87;;;3.93;;
65831;SDS011;52593;42.648;23.332;2023-06-26T09:36:59;8.13;;;3.92;;
65831;SDS011;52593;42.648;23.332;2023-06-26T09:39:29;9.25;;;4.93;;
65831;SDS011;52593;42.648;23.332;2023-06-26T09:41:55;10.40;;;5.15;;
65831;SDS011;52593;42.648;23.332;2023-06-26T09:44:22;9.57;;;4.72;;
65831;SDS011;52593;42.648;23.332;2023-06-26T09:46:48;8.10;;;4.80;;
65831;SDS011;52593;42.648;23.332;2023-06-26T09:49:13;10.00;;;4.57;;
65831;SDS011;52593;42.648;23.332;2023-06-26T09:51:40;8.20;;;4.57;;
65831;SDS011;52593;42.648;23.332;2023-06-26T09:54:06;8.57;;;4.25;;
65831;SDS011;52593;42.648;23.332;2023-06-26T09:56:33;9.93;;;4.63;;
65831;SDS011;52593;42.648;23.332;2023-06-26T09:59:00;10.57;;;4.67;;
65831;SDS011;52593;42.648;23.332;2023-06-26T10:01:26;10.23;;;4.60;;
65831;SDS011;52593;42.648;23.332;2023-06-26T10:03:53;10.23;;;4.85;;
65831;SDS011;52593;42.648;23.332;2023-06-26T10:06:21;8.18;;;4.10;;
65831;SDS011;52593;42.648;23.332;2023-06-26T10:09:14;8.93;;;4.57;;
65831;SDS011;52593;42.648;23.332;2023-06-26T10:11:51;10.20;;;4.65;;
65831;SDS011;52593;42.648;23.332;2023-06-26T10:14:21;8.43;;;4.35;;
65831;SDS011;52593;42.648;23.332;2023-06-26T10:16:48;10.23;;;4.47;;
65831;SDS011;52593;42.648;23.332;2023-06-26T10:19:16;11.50;;;4.40;;
65831;SDS011;52593;42.648;23.332;2023-06-26T10:21:50;9.13;;;4.13;;
65831;SDS011;52593;42.648;23.332;2023-06-26T10:24:20;9.35;;;4.32;;
65831;SDS011;52593;42.648;23.332;2023-06-26T10:26:48;9.40;;;4.28;;
65831;SDS011;52593;42.648;23.332;2023-06-26T10:29:16;8.95;;;4.93;;
65831;SDS011;52593;42.648;23.332;2023-06-26T10:31:45;7.57;;;3.85;;
65831;SDS011;52593;42.648;23.332;2023-06-26T10:34:15;9.23;;;4.47;;
65831;SDS011;52593;42.648;23.332;2023-06-26T10:36:40;7.47;;;3.60;;
65831;SDS011;52593;42.648;23.332;2023-06-26T10:39:06;7.83;;;4.10;;
65831;SDS011;52593;42.648;23.332;2023-06-26T10:41:41;9.65;;;4.82;;
65831;SDS011;52593;42.648;23.332;2023-06-26T10:44:10;9.20;;;4.43;;
65831;SDS011;52593;42.648;23.332;2023-06-26T10:46:49;9.30;;;4.63;;
65831;SDS011;52593;42.648;23.332;2023-06-26T10:49:17;7.90;;;3.83;;
65831;SDS011;52593;42.648;23.332;2023-06-26T10:51:47;9.23;;;3.47;;
65831;SDS011;52593;42.648;23.332;2023-06-26T10:54:16;8.57;;;3.95;;
65831;SDS011;52593;42.648;23.332;2023-06-26T10:56:47;11.15;;;4.15;;
65831;SDS011;52593;42.648;23.332;2023-06-26T10:59:25;9.00;;;4.07;;
65831;SDS011;52593;42.648;23.332;2023-06-26T11:01:56;8.23;;;4.50;;
65831;SDS011;52593;42.648;23.332;2023-06-26T11:07:20;9.35;;;5.10;;
65831;SDS011;52593;42.648;23.332;2023-06-26T11:12:33;9.00;;;4.20;;
65831;SDS011;52593;42.648;23.332;2023-06-26T11:15:00;9.97;;;4.60;;
65831;SDS011;52593;42.648;23.332;2023-06-26T11:17:26;9.57;;;4.50;;
65831;SDS011;52593;42.648;23.332;2023-06-26T11:19:53;7.75;;;3.85;;
65831;SDS011;52593;42.648;23.332;2023-06-26T11:22:20;8.93;;;4.13;;
65831;SDS011;52593;42.648;23.332;2023-06-26T11:24:47;10.87;;;4.83;;
65831;SDS011;52593;42.648;23.332;2023-06-26T11:27:16;8.50;;;4.70;;
65831;SDS011;52593;42.648;23.332;2023-06-26T11:29:47;7.77;;;4.27;;
65831;SDS011;52593;42.648;23.332;2023-06-26T11:32:12;9.07;;;3.95;;
65831;SDS011;52593;42.648;23.332;2023-06-26T11:34:38;9.27;;;4.83;;
65831;SDS011;52593;42.648;23.332;2023-06-26T11:37:04;11.10;;;4.73;;
65831;SDS011;52593;42.648;23.332;2023-06-26T11:39:30;8.10;;;4.32;;
65831;SDS011;52593;42.648;23.332;2023-06-26T11:41:56;9.10;;;4.83;;
65831;SDS011;52593;42.648;23.332;2023-06-26T11:44:21;9.05;;;4.10;;
65831;SDS011;52593;42.648;23.332;2023-06-26T11:46:47;7.80;;;3.70;;
65831;SDS011;52593;42.648;23.332;2023-06-26T11:49:14;8.90;;;4.05;;
65831;SDS011;52593;42.648;23.332;2023-06-26T11:51:41;8.02;;;4.20;;
65831;SDS011;52593;42.648;23.332;2023-06-26T11:54:07;9.55;;;3.85;;
65831;SDS011;52593;42.648;23.332;2023-06-26T11:56:33;8.20;;;4.47;;
65831;SDS011;52593;42.648;23.332;2023-06-26T11:58:59;12.17;;;4.70;;
65831;SDS011;52593;42.648;23.332;2023-06-26T12:04:00;8.18;;;3.90;;
65831;SDS011;52593;42.648;23.332;2023-06-26T12:06:29;9.33;;;4.43;;
65831;SDS011;52593;42.648;23.332;2023-06-26T12:08:56;9.00;;;4.18;;
65831;SDS011;52593;42.648;23.332;2023-06-26T12:11:22;8.95;;;4.53;;
65831;SDS011;52593;42.648;23.332;2023-06-26T12:13:49;8.18;;;4.22;;
65831;SDS011;52593;42.648;23.332;2023-06-26T12:16:15;10.48;;;4.75;;
65831;SDS011;52593;42.648;23.332;2023-06-26T12:18:41;9.60;;;4.60;;
65831;SDS011;52593;42.648;23.332;2023-06-26T12:21:06;8.83;;;4.43;;
65831;SDS011;52593;42.648;23.332;2023-06-26T12:23:32;9.80;;;4.60;;
65831;SDS011;52593;42.648;23.332;2023-06-26T12:25:59;10.13;;;4.43;;
65831;SDS011;52593;42.648;23.332;2023-06-26T12:28:41;8.43;;;4.30;;
65831;SDS011;52593;42.648;23.332;2023-06-26T12:31:15;8.60;;;4.07;;
65831;SDS011;52593;42.648;23.332;2023-06-26T12:33:44;9.27;;;3.80;;
65831;SDS011;52593;42.648;23.332;2023-06-26T12:36:10;8.35;;;3.08;;
65831;SDS011;52593;42.648;23.332;2023-06-26T12:38:37;8.70;;;4.03;;
65831;SDS011;52593;42.648;23.332;2023-06-26T12:41:03;7.88;;;3.70;;
65831;SDS011;52593;42.648;23.332;2023-06-26T12:43:28;8.87;;;4.07;;
65831;SDS011;52593;42.648;23.332;2023-06-26T12:45:57;10.63;;;6.05;;
65831;SDS011;52593;42.648;23.332;2023-06-26T12:48:38;8.83;;;4.13;;
65831;SDS011;52593;42.648;23.332;2023-06-26T12:51:15;10.15;;;3.92;;
65831;SDS011;52593;42.648;23.332;2023-06-26T12:53:42;8.50;;;4.25;;
65831;SDS011;52593;42.648;23.332;2023-06-26T12:56:08;9.73;;;4.45;;
65831;SDS011;52593;42.648;23.332;2023-06-26T12:58:34;9.20;;;4.43;;
65831;SDS011;52593;42.648;23.332;2023-06-26T13:01:02;9.77;;;4.80;;
65831;SDS011;52593;42.648;23.332;2023-06-26T13:03:30;9.27;;;4.07;;
65831;SDS011;52593;42.648;23.332;2023-06-26T13:05:56;8.60;;;4.10;;
65831;SDS011;52593;42.648;23.332;2023-06-26T13:08:21;8.10;;;4.10;;
65831;SDS011;52593;42.648;23.332;2023-06-26T13:10:47;9.73;;;4.55;;
65831;SDS011;52593;42.648;23.332;2023-06-26T13:13:13;9.23;;;5.00;;
65831;SDS011;52593;42.648;23.332;2023-06-26T13:15:38;10.70;;;4.73;;
65831;SDS011;52593;42.648;23.332;2023-06-26T13:18:04;10.18;;;4.45;;
65831;SDS011;52593;42.648;23.332;2023-06-26T13:20:29;9.67;;;4.33;;
65831;SDS011;52593;42.648;23.332;2023-06-26T13:22:54;9.03;;;4.63;;
65831;SDS011;52593;42.648;23.332;2023-06-26T13:25:20;12.93;;;5.20;;
65831;SDS011;52593;42.648;23.332;2023-06-26T13:27:46;8.93;;;4.38;;
65831;SDS011;52593;42.648;23.332;2023-06-26T13:30:12;10.23;;;5.00;;
65831;SDS011;52593;42.648;23.332;2023-06-26T13:32:39;10.52;;;4.57;;
65831;SDS011;52593;42.648;23.332;2023-06-26T13:35:04;8.43;;;4.10;;
65831;SDS011;52593;42.648;23.332;2023-06-26T13:37:30;9.60;;;4.50;;
65831;SDS011;52593;42.648;23.332;2023-06-26T13:39:56;10.52;;;4.40;;
65831;SDS011;52593;42.648;23.332;2023-06-26T13:42:24;9.50;;;4.53;;
65831;SDS011;52593;42.648;23.332;2023-06-26T13:44:49;9.33;;;4.33;;
65831;SDS011;52593;42.648;23.332;2023-06-26T13:47:14;10.17;;;4.43;;
65831;SDS011;52593;42.648;23.332;2023-06-26T13:49:40;10.67;;;4.20;;
65831;SDS011;52593;42.648;23.332;2023-06-26T13:52:06;8.20;;;3.90;;
65831;SDS011;52593;42.648;23.332;2023-06-26T13:54:37;11.83;;;4.27;;
65831;SDS011;52593;42.648;23.332;2023-06-26T13:57:07;8.73;;;4.50;;
65831;SDS011;52593;42.648;23.332;2023-06-26T13:59:33;8.30;;;4.53;;
65831;SDS011;52593;42.648;23.332;2023-06-26T14:01:59;9.48;;;4.40;;
65831;SDS011;52593;42.648;23.332;2023-06-26T14:04:24;9.43;;;4.90;;
65831;SDS011;52593;42.648;23.332;2023-06-26T14:06:50;10.13;;;5.00;;
65831;SDS011;52593;42.648;23.332;2023-06-26T14:09:16;9.07;;;4.73;;
65831;SDS011;52593;42.648;23.332;2023-06-26T14:11:41;8.43;;;4.53;;
65831;SDS011;52593;42.648;23.332;2023-06-26T14:14:07;11.73;;;5.15;;
65831;SDS011;52593;42.648;23.332;2023-06-26T14:16:32;10.77;;;5.43;;
65831;SDS011;52593;42.648;23.332;2023-06-26T14:18:57;11.23;;;5.90;;
65831;SDS011;52593;42.648;23.332;2023-06-26T14:21:23;11.23;;;4.70;;
65831;SDS011;52593;42.648;23.332;2023-06-26T14:23:50;9.87;;;4.67;;
65831;SDS011;52593;42.648;23.332;2023-06-26T14:26:15;9.57;;;5.43;;
65831;SDS011;52593;42.648;23.332;2023-06-26T14:28:41;9.10;;;4.57;;